createdAt,value
2017-11-25T00:00:30.294Z,1.93
2017-11-25T00:02:58.590Z,2.40
2017-11-25T00:05:26.942Z,2.10
2017-11-25T00:07:54.437Z,2.30
2017-11-25T00:10:21.980Z,2.13
2017-11-25T00:12:50.246Z,2.73
2017-11-25T00:15:18.513Z,2.27
2017-11-25T00:17:46.039Z,2.30
2017-11-25T00:20:13.563Z,2.17
2017-11-25T00:22:41.130Z,3.23
2017-11-25T00:25:08.636Z,3.20
2017-11-25T00:27:36.171Z,3.43
2017-11-25T00:30:03.713Z,3.23
2017-11-25T00:32:31.275Z,3.70
2017-11-25T00:34:58.765Z,3.97
2017-11-25T00:37:26.267Z,3.53
2017-11-25T00:39:53.812Z,4.40
2017-11-25T00:42:22.094Z,3.83
2017-11-25T00:44:50.394Z,5.40
2017-11-25T00:47:17.894Z,4.90
2017-11-25T00:49:45.459Z,4.67
2017-11-25T00:52:13.725Z,4.80
2017-11-25T00:54:41.289Z,4.33
2017-11-25T00:57:08.916Z,5.00
2017-11-25T00:59:36.462Z,4.83
2017-11-25T01:02:04.001Z,3.70
2017-11-25T01:04:31.519Z,3.20
2017-11-25T01:06:59.043Z,4.13
2017-11-25T01:09:26.556Z,3.70
2017-11-25T01:11:54.862Z,4.43
2017-11-25T01:14:22.424Z,4.00
2017-11-25T01:16:53.554Z,4.70
2017-11-25T01:19:21.123Z,4.00
2017-11-25T01:21:48.677Z,4.30
2017-11-25T01:24:16.268Z,4.40
2017-11-25T01:26:43.945Z,3.77
2017-11-25T01:29:11.596Z,3.40
2017-11-25T01:31:39.192Z,3.00
2017-11-25T01:34:07.539Z,3.60
2017-11-25T01:36:35.200Z,3.47
2017-11-25T01:39:02.746Z,3.63
2017-11-25T01:41:30.342Z,3.57
2017-11-25T01:43:58.652Z,3.60
2017-11-25T01:46:26.196Z,3.90
2017-11-25T01:48:53.782Z,4.33
2017-11-25T01:51:21.380Z,3.80
2017-11-25T01:53:49.745Z,3.30
2017-11-25T01:56:17.323Z,3.90
2017-11-25T01:58:45.657Z,3.47
2017-11-25T02:01:13.187Z,3.70
2017-11-25T02:03:40.765Z,3.60
2017-11-25T02:06:08.334Z,3.20
2017-11-25T02:08:35.914Z,3.90
2017-11-25T02:11:03.593Z,2.93
2017-11-25T02:13:31.184Z,2.93
2017-11-25T02:15:58.816Z,2.77
2017-11-25T02:18:27.162Z,3.13
2017-11-25T02:20:54.730Z,3.00
2017-11-25T02:23:22.305Z,2.43
2017-11-25T02:25:50.653Z,2.57
2017-11-25T02:28:18.232Z,2.87
2017-11-25T02:30:45.794Z,2.33
2017-11-25T02:33:14.893Z,2.50
2017-11-25T02:35:43.254Z,2.87
2017-11-25T02:38:10.831Z,2.83
2017-11-25T02:40:38.441Z,2.20
2017-11-25T02:43:06.035Z,3.40
2017-11-25T02:45:34.416Z,3.27
2017-11-25T02:48:02.813Z,2.93
2017-11-25T02:50:30.373Z,2.40
2017-11-25T02:52:58.724Z,3.37
2017-11-25T02:55:26.411Z,3.60
2017-11-25T02:57:54.746Z,2.60
2017-11-25T03:00:22.297Z,3.40
2017-11-25T03:02:49.873Z,2.83
2017-11-25T03:05:17.458Z,3.10
2017-11-25T03:07:45.787Z,3.50
2017-11-25T03:10:13.364Z,3.87
2017-11-25T03:12:40.918Z,3.23
2017-11-25T03:15:08.524Z,3.17
2017-11-25T03:17:36.083Z,3.60
2017-11-25T03:20:03.645Z,3.17
2017-11-25T03:22:31.268Z,3.17
2017-11-25T03:24:58.849Z,3.07
2017-11-25T03:27:27.192Z,4.23
2017-11-25T03:29:54.749Z,3.17
2017-11-25T03:32:22.289Z,3.73
2017-11-25T03:34:49.873Z,4.40
2017-11-25T03:37:17.447Z,4.27
2017-11-25T03:39:45.094Z,3.97
2017-11-25T03:42:12.653Z,5.00
2017-11-25T03:44:40.330Z,4.87
2017-11-25T03:47:07.972Z,3.83
2017-11-25T03:49:35.526Z,4.03
2017-11-25T03:52:03.116Z,4.70
2017-11-25T03:54:31.445Z,4.20
2017-11-25T03:56:59.020Z,3.77
2017-11-25T03:59:26.580Z,3.80
2017-11-25T04:01:54.230Z,4.33
2017-11-25T04:04:21.785Z,4.03
2017-11-25T04:06:49.372Z,4.00
2017-11-25T04:09:17.029Z,4.47
2017-11-25T04:11:44.599Z,4.13
2017-11-25T04:14:12.191Z,4.30
2017-11-25T04:16:39.778Z,3.43
2017-11-25T04:19:07.376Z,3.50
2017-11-25T04:21:34.952Z,4.07
2017-11-25T04:24:03.315Z,2.93
2017-11-25T04:26:30.877Z,3.03
2017-11-25T04:28:59.195Z,2.70
2017-11-25T04:31:26.775Z,2.20
2017-11-25T04:33:54.307Z,2.13
2017-11-25T04:36:21.854Z,1.50
2017-11-25T04:38:50.155Z,1.17
2017-11-25T04:41:17.696Z,1.40
2017-11-25T04:43:45.273Z,1.27
2017-11-25T04:46:12.842Z,1.50
2017-11-25T04:48:40.402Z,1.40
2017-11-25T04:51:07.954Z,1.50
2017-11-25T04:53:35.527Z,1.50
2017-11-25T04:56:03.072Z,1.30
2017-11-25T04:58:30.831Z,1.40
2017-11-25T05:00:58.391Z,1.60
2017-11-25T05:03:25.978Z,1.70
2017-11-25T05:05:53.560Z,1.37
2017-11-25T05:08:21.872Z,1.40
2017-11-25T05:10:49.499Z,1.33
2017-11-25T05:13:18.019Z,1.10
2017-11-25T05:15:45.625Z,1.40
2017-11-25T05:18:13.258Z,1.30
2017-11-25T05:20:40.929Z,1.20
2017-11-25T05:23:08.587Z,1.50
2017-11-25T05:25:36.133Z,1.70
2017-11-25T05:28:03.715Z,1.60
2017-11-25T05:30:31.265Z,1.37
2017-11-25T05:32:58.929Z,1.57
2017-11-25T05:35:26.493Z,2.00
2017-11-25T05:37:54.070Z,1.37
2017-11-25T05:40:22.440Z,1.80
2017-11-25T05:42:50.020Z,2.00
2017-11-25T05:45:18.371Z,2.10
2017-11-25T05:47:45.925Z,1.93
2017-11-25T05:50:13.509Z,1.97
2017-11-25T05:52:41.843Z,1.60
2017-11-25T05:55:09.389Z,1.97
2017-11-25T05:57:36.970Z,1.60
2017-11-25T06:00:05.298Z,1.60
2017-11-25T06:02:32.882Z,1.73
2017-11-25T06:05:00.446Z,2.00
2017-11-25T06:07:28.000Z,1.50
2017-11-25T06:09:56.298Z,1.70
2017-11-25T06:12:23.882Z,1.97
2017-11-25T06:14:52.237Z,1.60
2017-11-25T06:17:19.810Z,1.60
2017-11-25T06:19:48.174Z,1.57
2017-11-25T06:22:15.745Z,1.00
2017-11-25T06:24:44.186Z,0.97
2017-11-25T06:27:11.730Z,0.87
2017-11-25T06:29:39.281Z,0.90
2017-11-25T06:32:06.874Z,0.90
2017-11-25T06:34:34.426Z,1.13
2017-11-25T06:37:01.984Z,0.90
2017-11-25T06:39:30.538Z,0.90
2017-11-25T06:41:58.095Z,0.80
2017-11-25T06:44:25.647Z,0.80
2017-11-25T06:46:53.224Z,0.80
2017-11-25T06:49:20.835Z,0.90
2017-11-25T06:51:49.164Z,0.80
2017-11-25T06:54:16.716Z,0.80
2017-11-25T06:56:44.314Z,1.00
2017-11-25T06:59:11.876Z,0.77
2017-11-25T07:01:39.440Z,1.00
2017-11-25T07:04:07.031Z,1.20
2017-11-25T07:06:34.594Z,0.90
2017-11-25T07:09:02.186Z,0.83
2017-11-25T07:11:29.750Z,0.90
2017-11-25T07:13:57.354Z,0.90
2017-11-25T07:16:25.683Z,0.90
2017-11-25T07:18:53.229Z,1.00
2017-11-25T07:21:20.789Z,1.07
2017-11-25T07:23:48.451Z,1.00
2017-11-25T07:26:16.008Z,1.10
2017-11-25T07:28:43.559Z,1.20
2017-11-25T07:31:11.165Z,1.20
2017-11-25T07:33:39.478Z,1.10
2017-11-25T07:36:07.052Z,1.10
2017-11-25T07:38:34.611Z,1.30
2017-11-25T07:41:02.215Z,1.10
2017-11-25T07:43:29.812Z,1.20
2017-11-25T07:45:57.397Z,1.00
2017-11-25T07:48:25.019Z,0.90
2017-11-25T07:50:53.342Z,1.50
2017-11-25T07:53:21.312Z,1.20
2017-11-25T07:55:48.897Z,1.20
2017-11-25T07:58:16.471Z,1.20
2017-11-25T08:00:44.815Z,1.40
2017-11-25T08:03:12.382Z,1.10
2017-11-25T08:05:40.053Z,1.20
2017-11-25T08:08:07.624Z,1.23
2017-11-25T08:10:35.919Z,1.20
2017-11-25T08:13:04.209Z,1.00
2017-11-25T08:15:31.746Z,0.90
2017-11-25T08:18:00.043Z,1.10
2017-11-25T08:20:27.553Z,1.20
2017-11-25T08:22:55.166Z,1.10
2017-11-25T08:25:22.689Z,1.60
2017-11-25T08:27:50.226Z,1.03
2017-11-25T08:30:18.587Z,1.40
2017-11-25T08:32:46.104Z,1.00
2017-11-25T08:35:14.454Z,0.90
2017-11-25T08:37:41.975Z,0.90
2017-11-25T08:40:09.477Z,0.80
2017-11-25T08:42:37.772Z,0.80
2017-11-25T08:45:06.060Z,1.00
2017-11-25T08:47:33.639Z,0.90
2017-11-25T08:50:01.149Z,1.03
2017-11-25T08:52:29.441Z,0.97
2017-11-25T08:54:56.978Z,1.20
2017-11-25T08:57:25.258Z,0.90
2017-11-25T08:59:53.568Z,0.90
2017-11-25T09:02:21.078Z,1.10
2017-11-25T09:04:48.689Z,0.90
2017-11-25T09:07:16.210Z,0.90
2017-11-25T09:09:44.521Z,0.80
2017-11-25T09:12:12.038Z,0.90
2017-11-25T09:14:40.309Z,1.00
2017-11-25T09:17:07.846Z,0.90
2017-11-25T09:19:35.355Z,0.97
2017-11-25T09:22:02.876Z,0.90
2017-11-25T09:24:30.402Z,1.23
2017-11-25T09:26:57.944Z,0.90
2017-11-25T09:29:25.452Z,1.20
2017-11-25T09:31:53.054Z,0.93
2017-11-25T09:34:20.595Z,1.20
2017-11-25T09:36:48.859Z,0.90
2017-11-25T09:39:17.160Z,0.83
2017-11-25T09:41:44.696Z,0.80
2017-11-25T09:44:12.953Z,1.00
2017-11-25T09:46:40.480Z,0.90
2017-11-25T09:49:08.002Z,0.73
2017-11-25T09:51:35.542Z,0.90
2017-11-25T09:54:03.862Z,1.30
2017-11-25T09:56:31.406Z,0.70
2017-11-25T09:58:58.921Z,0.90
2017-11-25T10:01:26.431Z,0.80
2017-11-25T10:03:53.957Z,0.80
2017-11-25T10:06:22.279Z,0.80
2017-11-25T10:08:49.806Z,0.80
2017-11-25T10:11:17.333Z,1.10
2017-11-25T10:13:44.898Z,0.90
2017-11-25T10:16:13.200Z,0.80
2017-11-25T10:18:40.720Z,0.87
2017-11-25T10:21:09.037Z,0.80
2017-11-25T10:23:36.560Z,0.80
2017-11-25T10:26:05.896Z,0.87
2017-11-25T10:28:33.478Z,0.80
2017-11-25T10:31:00.985Z,0.90
2017-11-25T10:33:29.310Z,0.70
2017-11-25T10:35:56.820Z,0.77
2017-11-25T10:38:25.090Z,0.80
2017-11-25T10:40:53.405Z,0.73
2017-11-25T10:43:20.913Z,0.93
2017-11-25T10:45:48.501Z,0.93
2017-11-25T10:48:16.038Z,0.90
2017-11-25T10:50:44.380Z,0.80
2017-11-25T10:53:11.916Z,0.90
2017-11-25T10:55:39.430Z,1.30
2017-11-25T10:58:07.732Z,1.50
2017-11-25T11:00:35.252Z,0.83
2017-11-25T11:03:02.802Z,1.37
2017-11-25T11:05:30.315Z,1.23
2017-11-25T11:07:57.818Z,0.90
2017-11-25T11:10:25.383Z,1.10
2017-11-25T11:12:52.900Z,1.17
2017-11-25T11:15:20.443Z,1.30
2017-11-25T11:17:48.009Z,0.93
2017-11-25T11:20:15.550Z,1.37
2017-11-25T11:22:43.087Z,1.10
2017-11-25T11:25:11.393Z,1.00
2017-11-25T11:27:38.962Z,1.50
2017-11-25T11:30:06.469Z,1.90
2017-11-25T11:32:33.962Z,1.60
2017-11-25T11:35:01.501Z,1.50
2017-11-25T11:37:29.778Z,1.50
2017-11-25T11:39:58.079Z,1.20
2017-11-25T11:42:25.611Z,1.13
2017-11-25T11:44:53.919Z,0.90
2017-11-25T11:47:21.459Z,1.10
2017-11-25T11:49:48.972Z,0.93
2017-11-25T11:52:18.016Z,1.00
2017-11-25T11:54:45.527Z,1.10
2017-11-25T11:57:13.070Z,1.00
2017-11-25T11:59:40.605Z,1.20
2017-11-25T12:02:08.160Z,1.07
2017-11-25T12:04:35.670Z,0.97
2017-11-25T12:07:04.280Z,1.17
2017-11-25T12:09:31.875Z,1.10
2017-11-25T12:11:59.404Z,1.23
2017-11-25T12:14:26.958Z,1.27
2017-11-25T12:16:54.507Z,1.10
2017-11-25T12:19:22.815Z,1.50
2017-11-25T12:21:50.396Z,1.20
2017-11-25T12:24:17.940Z,1.27
2017-11-25T12:26:45.498Z,0.90
2017-11-25T12:29:13.019Z,1.20
2017-11-25T12:31:40.546Z,1.17
2017-11-25T12:34:08.094Z,1.70
2017-11-25T12:36:35.609Z,1.30
2017-11-25T12:39:03.160Z,1.50
2017-11-25T12:41:30.677Z,1.90
2017-11-25T12:43:58.229Z,1.30
2017-11-25T12:46:25.766Z,1.30
2017-11-25T12:48:53.272Z,1.20
2017-11-25T12:51:21.583Z,1.30
2017-11-25T12:53:49.151Z,1.40
2017-11-25T12:56:16.660Z,1.40
2017-11-25T12:58:44.933Z,1.60
2017-11-25T13:01:13.242Z,1.30
2017-11-25T13:03:40.753Z,1.97
2017-11-25T13:06:08.307Z,1.03
2017-11-25T13:08:35.826Z,1.30
2017-11-25T13:11:03.398Z,1.00
2017-11-25T13:13:30.912Z,1.00
2017-11-25T13:15:59.212Z,1.03
2017-11-25T13:18:26.771Z,0.90
2017-11-25T13:20:54.286Z,0.80
2017-11-25T13:23:22.593Z,0.90
2017-11-25T13:25:50.101Z,0.93
2017-11-25T13:28:17.666Z,0.77
2017-11-25T13:30:45.176Z,1.20
2017-11-25T13:33:12.707Z,1.30
2017-11-25T13:35:41.013Z,1.13
2017-11-25T13:38:08.542Z,0.90
2017-11-25T13:40:37.704Z,1.00
2017-11-25T13:43:05.206Z,1.10
2017-11-25T13:45:32.755Z,1.20
2017-11-25T13:48:01.046Z,1.17
2017-11-25T13:50:28.598Z,1.10
2017-11-25T13:52:56.166Z,0.80
2017-11-25T13:55:23.745Z,1.00
2017-11-25T13:57:51.388Z,1.10
2017-11-25T14:00:18.913Z,0.90
2017-11-25T14:02:47.221Z,1.10
2017-11-25T14:05:14.904Z,0.80
2017-11-25T14:07:42.420Z,0.90
2017-11-25T14:10:10.771Z,0.90
2017-11-25T14:12:38.298Z,1.10
2017-11-25T14:15:06.574Z,1.17
2017-11-25T14:17:34.243Z,0.90
2017-11-25T14:20:01.800Z,0.90
2017-11-25T14:22:29.344Z,0.90
2017-11-25T14:24:56.890Z,0.80
2017-11-25T14:27:24.497Z,0.90
2017-11-25T14:29:52.042Z,1.00
2017-11-25T14:32:19.546Z,0.90
2017-11-25T14:34:47.881Z,1.10
2017-11-25T14:37:15.417Z,0.80
2017-11-25T14:39:42.992Z,1.00
2017-11-25T14:42:10.543Z,0.90
2017-11-25T14:44:38.062Z,0.90
2017-11-25T14:47:05.667Z,1.10
2017-11-25T14:49:33.178Z,0.90
2017-11-25T14:52:00.737Z,1.20
2017-11-25T14:54:28.249Z,1.10
2017-11-25T14:56:55.776Z,0.77
2017-11-25T14:59:23.424Z,0.93
2017-11-25T15:01:51.002Z,0.90
2017-11-25T15:04:18.520Z,0.90
2017-11-25T15:06:46.822Z,1.20
2017-11-25T15:09:14.339Z,1.30
2017-11-25T15:11:42.683Z,1.27
2017-11-25T15:14:10.200Z,0.90
2017-11-25T15:16:37.710Z,0.83
2017-11-25T15:19:06.766Z,0.93
2017-11-25T15:21:34.288Z,1.00
2017-11-25T15:24:01.872Z,0.90
2017-11-25T15:26:29.408Z,0.80
2017-11-25T15:28:57.769Z,0.80
2017-11-25T15:31:26.055Z,0.80
2017-11-25T15:33:54.471Z,1.00
2017-11-25T15:36:21.978Z,0.80
2017-11-25T15:38:50.286Z,0.80
2017-11-25T15:41:17.977Z,1.53
2017-11-25T15:43:45.524Z,0.80
2017-11-25T15:46:13.104Z,0.90
2017-11-25T15:48:40.614Z,0.90
2017-11-25T15:51:08.901Z,0.80
2017-11-25T15:53:36.444Z,0.90
2017-11-25T15:56:04.733Z,0.90
2017-11-25T15:58:32.303Z,0.80
2017-11-25T16:00:59.831Z,0.80
2017-11-25T16:03:28.139Z,0.80
2017-11-25T16:05:55.653Z,0.80
2017-11-25T16:08:23.970Z,0.87
2017-11-25T16:10:51.492Z,1.43
2017-11-25T16:13:19.833Z,1.40
2017-11-25T16:15:47.355Z,1.00
2017-11-25T16:18:14.921Z,1.23
2017-11-25T16:20:42.487Z,1.10
2017-11-25T16:23:09.999Z,1.57
2017-11-25T16:25:38.352Z,1.30
2017-11-25T16:28:05.898Z,1.20
2017-11-25T16:30:33.428Z,1.40
2017-11-25T16:33:00.966Z,0.97
2017-11-25T16:35:29.255Z,1.13
2017-11-25T16:37:56.802Z,0.90
2017-11-25T16:40:24.317Z,1.00
2017-11-25T16:42:51.878Z,1.50
2017-11-25T16:45:19.392Z,0.90
2017-11-25T16:47:46.957Z,1.00
2017-11-25T16:50:14.583Z,1.10
2017-11-25T16:52:43.728Z,1.20
2017-11-25T16:55:11.255Z,0.90
2017-11-25T16:57:38.838Z,1.17
2017-11-25T17:00:06.352Z,0.90
2017-11-25T17:02:34.647Z,1.10
2017-11-25T17:05:02.187Z,1.20
2017-11-25T17:07:30.471Z,1.10
2017-11-25T17:09:57.996Z,0.90
2017-11-25T17:12:26.330Z,1.03
2017-11-25T17:14:53.862Z,1.13
2017-11-25T17:17:22.177Z,1.20
2017-11-25T17:19:49.709Z,1.10
2017-11-25T17:22:17.233Z,0.90
2017-11-25T17:24:44.787Z,1.00
2017-11-25T17:27:12.311Z,1.00
2017-11-25T17:29:39.888Z,1.13
2017-11-25T17:32:07.416Z,1.23
2017-11-25T17:34:34.995Z,1.67
2017-11-25T17:37:02.553Z,1.43
2017-11-25T17:39:30.109Z,1.87
2017-11-25T17:41:57.666Z,1.60
2017-11-25T17:44:25.185Z,1.90
2017-11-25T17:46:52.742Z,1.50
2017-11-25T17:49:20.273Z,1.80
2017-11-25T17:51:48.578Z,1.90
2017-11-25T17:54:16.152Z,2.10
2017-11-25T17:56:43.661Z,2.03
2017-11-25T17:59:11.248Z,2.40
2017-11-25T18:01:38.828Z,2.70
2017-11-25T18:04:06.341Z,2.63
2017-11-25T18:06:33.870Z,2.87
2017-11-25T18:09:01.418Z,3.30
2017-11-25T18:11:28.966Z,3.90
2017-11-25T18:13:56.468Z,3.80
2017-11-25T18:16:24.058Z,3.70
2017-11-25T18:18:51.565Z,5.20
2017-11-25T18:21:19.131Z,9.90
2017-11-25T18:23:46.635Z,6.00
2017-11-25T18:26:14.164Z,7.17
2017-11-25T18:28:42.507Z,5.70
2017-11-25T18:31:10.053Z,5.73
2017-11-25T18:33:37.566Z,5.90
2017-11-25T18:36:05.899Z,7.50
2017-11-25T18:38:33.410Z,6.10
2017-11-25T18:41:00.962Z,7.50
2017-11-25T18:43:28.526Z,7.27
2017-11-25T18:45:56.065Z,6.50
2017-11-25T18:48:24.391Z,6.10
2017-11-25T18:50:51.946Z,7.67
2017-11-25T18:53:19.487Z,8.20
2017-11-25T18:55:47.006Z,7.77
2017-11-25T18:58:14.527Z,7.10
2017-11-25T19:00:42.080Z,7.97
2017-11-25T19:03:09.633Z,7.30
2017-11-25T19:05:37.211Z,8.80
2017-11-25T19:08:04.753Z,8.87
2017-11-25T19:10:32.286Z,8.90
2017-11-25T19:12:59.838Z,9.03
2017-11-25T19:15:28.137Z,9.83
2017-11-25T19:17:55.747Z,9.10
2017-11-25T19:20:23.287Z,10.50
2017-11-25T19:22:50.847Z,8.90
2017-11-25T19:25:18.416Z,7.73
2017-11-25T19:27:45.935Z,8.73
2017-11-25T19:30:13.478Z,10.33
2017-11-25T19:32:40.995Z,9.30
2017-11-25T19:35:08.534Z,9.60
2017-11-25T19:37:36.062Z,8.23
2017-11-25T19:40:03.587Z,11.50
2017-11-25T19:42:31.903Z,10.33
2017-11-25T19:44:59.402Z,8.70
2017-11-25T19:47:26.959Z,7.13
2017-11-25T19:49:54.495Z,7.97
2017-11-25T19:52:22.032Z,7.97
2017-11-25T19:54:49.592Z,8.30
2017-11-25T19:57:17.109Z,8.00
2017-11-25T19:59:45.415Z,9.40
2017-11-25T20:02:12.936Z,9.07
2017-11-25T20:04:41.246Z,8.20
2017-11-25T20:07:08.790Z,8.50
2017-11-25T20:09:36.310Z,8.90
2017-11-25T20:12:03.859Z,8.10
2017-11-25T20:14:31.394Z,7.80
2017-11-25T20:16:58.958Z,8.80
2017-11-25T20:19:26.454Z,7.67
2017-11-25T20:21:54.058Z,8.17
2017-11-25T20:24:21.580Z,8.27
2017-11-25T20:26:49.865Z,9.57
2017-11-25T20:29:18.175Z,7.80
2017-11-25T20:31:45.698Z,7.97
2017-11-25T20:34:14.027Z,8.87
2017-11-25T20:36:41.535Z,8.97
2017-11-25T20:39:09.838Z,8.10
2017-11-25T20:41:37.408Z,7.40
2017-11-25T20:44:04.946Z,8.77
2017-11-25T20:46:32.482Z,7.73
2017-11-25T20:49:00.757Z,7.97
2017-11-25T20:51:29.077Z,8.20
2017-11-25T20:53:56.587Z,6.03
2017-11-25T20:56:24.892Z,8.53
2017-11-25T20:58:52.428Z,7.50
2017-11-25T21:01:20.745Z,6.40
2017-11-25T21:03:48.290Z,6.70
2017-11-25T21:06:15.814Z,7.67
2017-11-25T21:08:44.238Z,7.27
2017-11-25T21:11:11.770Z,6.43
2017-11-25T21:13:39.340Z,8.43
2017-11-25T21:16:06.911Z,7.70
2017-11-25T21:18:34.474Z,8.13
2017-11-25T21:21:02.042Z,7.30
2017-11-25T21:23:29.551Z,7.70
2017-11-25T21:25:57.815Z,7.40
2017-11-25T21:28:26.116Z,9.40
2017-11-25T21:30:53.660Z,9.47
2017-11-25T21:33:21.198Z,9.40
2017-11-25T21:35:49.486Z,8.47
2017-11-25T21:38:17.821Z,6.23
2017-11-25T21:40:45.333Z,7.33
2017-11-25T21:43:12.887Z,6.03
2017-11-25T21:45:41.209Z,7.10
2017-11-25T21:48:08.788Z,7.07
2017-11-25T21:50:36.327Z,5.93
2017-11-25T21:53:03.874Z,6.43
2017-11-25T21:55:31.426Z,6.67
2017-11-25T21:57:58.982Z,5.20
2017-11-25T22:00:26.566Z,6.37
2017-11-25T22:02:54.084Z,4.80
2017-11-25T22:05:21.659Z,5.63
2017-11-25T22:07:49.191Z,6.60
2017-11-25T22:10:16.761Z,6.70
2017-11-25T22:12:44.275Z,6.50
2017-11-25T22:15:11.894Z,7.77
2017-11-25T22:17:39.416Z,6.37
2017-11-25T22:20:07.711Z,6.10
2017-11-25T22:22:35.250Z,4.60
2017-11-25T22:25:03.536Z,5.50
2017-11-25T22:27:31.094Z,5.77
2017-11-25T22:29:58.640Z,5.50
2017-11-25T22:32:26.980Z,5.50
2017-11-25T22:34:54.498Z,6.53
2017-11-25T22:37:22.044Z,6.57
2017-11-25T22:39:49.558Z,6.30
2017-11-25T22:42:17.133Z,5.83
2017-11-25T22:44:44.658Z,4.60
2017-11-25T22:47:12.169Z,5.40
2017-11-25T22:49:39.747Z,5.07
2017-11-25T22:52:07.279Z,5.47
2017-11-25T22:54:35.697Z,5.60
2017-11-25T22:57:03.272Z,5.60
2017-11-25T22:59:30.808Z,5.47
2017-11-25T23:01:58.333Z,5.43
2017-11-25T23:04:26.604Z,5.50
2017-11-25T23:06:54.910Z,5.80
2017-11-25T23:09:22.412Z,5.57
2017-11-25T23:11:49.955Z,5.77
2017-11-25T23:14:17.455Z,5.87
2017-11-25T23:16:45.739Z,4.70
2017-11-25T23:19:14.035Z,4.67
2017-11-25T23:21:41.592Z,5.23
2017-11-25T23:24:09.122Z,4.50
2017-11-25T23:26:37.405Z,4.63
2017-11-25T23:29:05.798Z,4.30
2017-11-25T23:31:33.313Z,5.77
2017-11-25T23:34:00.815Z,3.93
2017-11-25T23:36:28.352Z,4.70
2017-11-25T23:38:56.633Z,5.00
2017-11-25T23:41:24.965Z,4.73
2017-11-25T23:43:52.470Z,5.27
2017-11-25T23:46:19.981Z,4.53
2017-11-25T23:48:47.532Z,4.30
2017-11-25T23:51:15.063Z,4.33
2017-11-25T23:53:42.597Z,5.33
2017-11-25T23:56:10.147Z,4.67
2017-11-25T23:58:38.449Z,4.20
